createdAt,value
2024-02-29T00:01:57.186Z,14.98
2024-02-29T00:04:27.448Z,14.35
2024-02-29T00:06:59.399Z,14.50
2024-02-29T00:09:27.413Z,14.60
2024-02-29T00:11:56.094Z,14.55
2024-02-29T00:14:24.148Z,14.88
2024-02-29T00:16:52.413Z,14.38
2024-02-29T00:19:21.584Z,14.68
2024-02-29T00:21:50.015Z,13.95
2024-02-29T00:24:17.871Z,14.40
2024-02-29T00:26:46.023Z,14.30
2024-02-29T00:29:14.000Z,14.98
2024-02-29T00:31:46.021Z,14.40
2024-02-29T00:34:14.242Z,14.43
2024-02-29T00:36:42.576Z,13.88
2024-02-29T00:39:14.870Z,13.82
2024-02-29T00:41:43.762Z,13.98
2024-02-29T00:44:12.078Z,14.57
2024-02-29T00:46:42.730Z,14.57
2024-02-29T00:49:10.882Z,14.25
2024-02-29T00:51:39.744Z,14.38
2024-02-29T00:54:07.662Z,14.18
2024-02-29T00:56:36.073Z,14.35
2024-02-29T00:59:04.131Z,14.55
2024-02-29T01:01:35.055Z,14.10
2024-02-29T01:04:03.200Z,14.82
2024-02-29T01:06:31.460Z,13.75
2024-02-29T01:08:59.538Z,14.65
2024-02-29T01:11:27.809Z,14.40
2024-02-29T01:13:55.793Z,14.50
2024-02-29T01:16:23.956Z,13.60
2024-02-29T01:18:52.070Z,14.23
2024-02-29T01:21:20.205Z,14.90
2024-02-29T01:23:48.155Z,13.68
2024-02-29T01:26:16.447Z,14.00
2024-02-29T01:28:45.747Z,13.25
2024-02-29T01:31:14.806Z,14.00
2024-02-29T01:33:42.894Z,13.35
2024-02-29T01:36:11.097Z,13.82
2024-02-29T01:38:39.944Z,13.68
2024-02-29T01:41:08.172Z,13.85
2024-02-29T01:43:36.511Z,14.98
2024-02-29T01:46:11.373Z,14.35
2024-02-29T01:48:40.126Z,14.02
2024-02-29T01:51:10.047Z,13.57
2024-02-29T01:53:39.186Z,14.52
2024-02-29T01:56:08.331Z,14.30
2024-02-29T01:58:37.212Z,14.32
2024-02-29T02:01:05.879Z,15.00
2024-02-29T02:03:34.867Z,14.60
2024-02-29T02:06:03.037Z,14.20
2024-02-29T02:08:33.297Z,13.95
2024-02-29T02:11:01.930Z,14.40
2024-02-29T02:13:29.961Z,14.38
2024-02-29T02:15:58.261Z,13.95
2024-02-29T02:18:26.245Z,14.40
2024-02-29T02:20:57.607Z,14.68
2024-02-29T02:23:25.558Z,14.48
2024-02-29T02:25:58.965Z,14.05
2024-02-29T02:28:27.262Z,13.90
2024-02-29T02:30:55.581Z,14.07
2024-02-29T02:33:23.569Z,13.65
2024-02-29T02:35:51.728Z,14.27
2024-02-29T02:38:19.662Z,14.50
2024-02-29T02:40:47.829Z,14.90
2024-02-29T02:43:18.610Z,14.35
2024-02-29T02:45:47.006Z,13.95
2024-02-29T02:48:15.948Z,13.90
2024-02-29T02:50:44.785Z,13.88
2024-02-29T02:53:12.703Z,14.80
2024-02-29T02:55:41.106Z,13.73
2024-02-29T02:58:08.981Z,14.50
2024-02-29T03:00:37.291Z,14.32
2024-02-29T03:03:05.276Z,14.27
2024-02-29T03:05:33.746Z,14.93
2024-02-29T03:08:01.961Z,17.08
2024-02-29T03:10:30.187Z,15.30
2024-02-29T03:12:58.027Z,17.08
2024-02-29T03:15:26.255Z,16.05
2024-02-29T03:17:57.431Z,15.88
2024-02-29T03:20:25.684Z,15.57
2024-02-29T03:22:53.471Z,16.08
2024-02-29T03:25:21.662Z,15.57
2024-02-29T03:27:53.195Z,15.48
2024-02-29T03:30:21.461Z,15.50
2024-02-29T03:32:49.399Z,15.38
2024-02-29T03:35:17.811Z,14.90
2024-02-29T03:37:45.595Z,15.82
2024-02-29T03:40:14.060Z,14.70
2024-02-29T03:42:44.335Z,15.18
2024-02-29T03:45:12.643Z,16.02
2024-02-29T03:47:40.651Z,15.90
2024-02-29T03:50:11.667Z,15.57
2024-02-29T03:52:40.093Z,15.48
2024-02-29T03:55:09.582Z,16.48
2024-02-29T03:57:37.683Z,16.42
2024-02-29T04:00:12.606Z,16.95
2024-02-29T04:02:43.643Z,17.20
2024-02-29T04:05:12.051Z,17.63
2024-02-29T04:07:44.157Z,17.38
2024-02-29T04:10:12.788Z,18.20
2024-02-29T04:12:40.808Z,16.90
2024-02-29T04:15:09.843Z,16.45
2024-02-29T04:17:37.685Z,16.85
2024-02-29T04:20:07.261Z,16.20
2024-02-29T04:22:35.302Z,16.33
2024-02-29T04:25:03.809Z,15.57
2024-02-29T04:27:31.811Z,17.23
2024-02-29T04:30:00.237Z,15.00
2024-02-29T04:32:28.038Z,15.00
2024-02-29T04:34:56.416Z,16.30
2024-02-29T04:37:24.222Z,17.83
2024-02-29T04:39:52.610Z,16.92
2024-02-29T04:42:23.439Z,17.75
2024-02-29T04:44:51.611Z,16.67
2024-02-29T04:47:20.192Z,17.90
2024-02-29T04:49:48.730Z,18.02
2024-02-29T04:52:16.764Z,18.40
2024-02-29T04:54:45.282Z,18.00
2024-02-29T04:57:13.325Z,18.80
2024-02-29T04:59:41.781Z,18.77
2024-02-29T05:02:11.266Z,19.58
2024-02-29T05:04:39.468Z,19.02
2024-02-29T05:07:07.428Z,18.73
2024-02-29T05:09:35.706Z,18.98
2024-02-29T05:12:03.735Z,19.70
2024-02-29T05:20:16.215Z,18.30
2024-02-29T05:23:05.026Z,18.80
2024-02-29T05:25:33.471Z,18.77
2024-02-29T05:28:03.171Z,18.60
2024-02-29T05:30:31.310Z,18.05
2024-02-29T05:32:59.558Z,19.58
2024-02-29T05:35:27.807Z,18.00
2024-02-29T05:37:58.452Z,19.17
2024-02-29T05:40:30.964Z,18.73
2024-02-29T05:42:59.258Z,18.10
2024-02-29T05:45:27.174Z,17.08
2024-02-29T05:47:55.495Z,16.88
2024-02-29T05:50:23.453Z,17.98
2024-02-29T05:52:51.876Z,18.27
2024-02-29T05:55:21.901Z,18.05
2024-02-29T05:57:50.248Z,18.02
2024-02-29T06:00:23.558Z,17.95
2024-02-29T06:02:53.204Z,18.20
2024-02-29T06:05:21.514Z,17.52
2024-02-29T06:07:49.730Z,16.52
2024-02-29T06:10:20.861Z,18.90
2024-02-29T06:12:49.336Z,18.30
2024-02-29T06:15:17.299Z,18.70
2024-02-29T06:17:45.715Z,17.45
2024-02-29T06:20:14.296Z,17.77
2024-02-29T06:22:43.262Z,18.30
2024-02-29T06:25:11.785Z,18.17
2024-02-29T06:27:41.031Z,18.92
2024-02-29T06:30:10.404Z,18.58
2024-02-29T06:32:42.020Z,19.17
2024-02-29T06:35:10.672Z,19.83
2024-02-29T06:37:43.053Z,21.05
2024-02-29T06:40:13.159Z,19.27
2024-02-29T06:42:42.551Z,20.25
2024-02-29T06:45:11.847Z,19.52
2024-02-29T06:47:44.317Z,19.25
2024-02-29T06:50:13.729Z,18.50
2024-02-29T06:52:42.306Z,19.20
2024-02-29T06:55:10.718Z,17.23
2024-02-29T06:57:39.343Z,16.58
2024-02-29T07:00:07.892Z,16.80
2024-02-29T07:02:36.237Z,17.60
2024-02-29T07:05:04.627Z,17.40
2024-02-29T07:07:33.320Z,17.20
2024-02-29T07:10:01.528Z,16.63
2024-02-29T07:12:30.094Z,14.98
2024-02-29T07:14:58.251Z,15.77
2024-02-29T07:17:26.440Z,15.95
2024-02-29T07:19:54.441Z,15.35
2024-02-29T07:22:22.776Z,15.55
2024-02-29T07:24:50.757Z,14.52
2024-02-29T07:27:19.008Z,15.23
2024-02-29T07:29:48.622Z,14.90
2024-02-29T07:32:16.813Z,13.95
2024-02-29T07:34:44.712Z,15.00
2024-02-29T07:37:12.967Z,14.23
2024-02-29T07:39:41.053Z,13.48
2024-02-29T07:42:10.566Z,14.32
2024-02-29T07:44:38.592Z,14.75
2024-02-29T07:47:06.839Z,15.40
2024-02-29T07:49:34.685Z,14.95
2024-02-29T07:52:03.037Z,15.20
2024-02-29T07:54:33.706Z,15.18
2024-02-29T07:57:05.772Z,15.20
2024-02-29T07:59:33.838Z,14.60
2024-02-29T08:02:02.463Z,14.70
2024-02-29T08:04:30.549Z,14.90
2024-02-29T08:06:58.773Z,14.18
2024-02-29T08:09:26.793Z,14.00
2024-02-29T08:11:55.987Z,14.70
2024-02-29T08:14:25.731Z,14.48
2024-02-29T08:16:54.290Z,15.20
2024-02-29T08:19:22.643Z,14.40
2024-02-29T08:21:53.818Z,14.20
2024-02-29T08:24:22.086Z,14.93
2024-02-29T08:26:50.308Z,14.40
2024-02-29T08:29:21.128Z,14.73
2024-02-29T08:31:49.702Z,14.95
2024-02-29T08:34:17.780Z,14.23
2024-02-29T08:36:46.438Z,14.32
2024-02-29T08:39:14.462Z,14.23
2024-02-29T08:41:42.745Z,14.85
2024-02-29T08:44:10.615Z,14.43
2024-02-29T08:46:39.019Z,14.52
2024-02-29T08:49:08.919Z,13.50
2024-02-29T08:51:37.458Z,14.43
2024-02-29T08:54:07.536Z,15.13
2024-02-29T08:56:36.625Z,14.45
2024-02-29T08:59:04.488Z,14.88
2024-02-29T09:01:32.900Z,15.70
2024-02-29T09:04:01.015Z,15.93
2024-02-29T09:06:39.899Z,15.65
2024-02-29T09:09:09.830Z,15.85
2024-02-29T09:11:39.470Z,14.77
2024-02-29T09:14:07.426Z,15.55
2024-02-29T09:16:35.721Z,16.42
2024-02-29T09:19:04.458Z,16.55
2024-02-29T09:21:33.989Z,16.52
2024-02-29T09:24:01.966Z,15.30
2024-02-29T09:26:30.320Z,15.80
2024-02-29T09:28:58.241Z,15.88
2024-02-29T09:31:26.588Z,16.05
2024-02-29T09:33:55.126Z,15.98
2024-02-29T09:36:23.339Z,16.75
2024-02-29T09:38:51.265Z,16.05
2024-02-29T09:43:54.927Z,16.85
2024-02-29T09:46:23.652Z,16.88
2024-02-29T09:48:53.692Z,17.05
2024-02-29T09:51:23.177Z,16.35
2024-02-29T09:53:54.066Z,16.42
2024-02-29T09:56:24.661Z,16.45
2024-02-29T09:58:53.041Z,15.68
2024-02-29T10:01:21.653Z,15.30
2024-02-29T10:03:50.256Z,15.27
2024-02-29T10:06:18.541Z,16.27
2024-02-29T10:08:46.997Z,16.15
2024-02-29T10:11:15.024Z,16.05
2024-02-29T10:13:43.471Z,16.42
2024-02-29T10:16:15.262Z,16.02
2024-02-29T10:18:43.740Z,16.92
2024-02-29T10:21:12.805Z,14.27
2024-02-29T10:23:41.591Z,15.35
2024-02-29T10:26:10.436Z,15.98
2024-02-29T10:28:38.721Z,17.30
2024-02-29T10:31:06.620Z,16.08
2024-02-29T10:33:39.925Z,15.73
2024-02-29T10:36:14.884Z,15.73
2024-02-29T10:38:43.192Z,16.65
2024-02-29T10:41:12.473Z,14.98
2024-02-29T10:43:45.342Z,15.38
2024-02-29T10:46:16.246Z,15.60
2024-02-29T10:48:59.440Z,16.42
2024-02-29T10:51:36.994Z,15.80
2024-02-29T10:54:16.464Z,15.32
2024-02-29T10:56:47.875Z,15.05
2024-02-29T10:59:20.559Z,14.88
2024-02-29T11:01:49.633Z,14.05
2024-02-29T11:04:18.173Z,14.60
2024-02-29T11:06:48.806Z,14.38
2024-02-29T11:09:28.590Z,14.07
2024-02-29T11:12:15.037Z,15.23
2024-02-29T11:14:49.630Z,14.13
2024-02-29T11:17:18.512Z,14.30
2024-02-29T11:19:57.770Z,13.98
2024-02-29T11:22:37.373Z,14.38
2024-02-29T11:25:12.416Z,13.73
2024-02-29T11:27:54.675Z,15.05
2024-02-29T11:30:25.638Z,14.65
2024-02-29T11:32:54.119Z,14.32
2024-02-29T11:35:23.261Z,15.18
2024-02-29T11:37:54.947Z,14.18
2024-02-29T11:40:25.734Z,13.77
2024-02-29T11:42:58.773Z,13.93
2024-02-29T11:45:27.032Z,14.60
2024-02-29T11:47:55.029Z,14.57
2024-02-29T11:50:23.464Z,14.00
2024-02-29T11:52:53.529Z,14.27
2024-02-29T11:55:22.109Z,14.57
2024-02-29T11:57:50.330Z,14.27
2024-02-29T12:00:18.924Z,14.85
2024-02-29T12:02:47.081Z,16.63
2024-02-29T12:05:17.845Z,14.65
2024-02-29T12:07:46.989Z,15.15
2024-02-29T12:10:16.839Z,14.23
2024-02-29T12:12:46.190Z,14.63
2024-02-29T12:15:16.020Z,15.25
2024-02-29T12:17:44.874Z,14.23
2024-02-29T12:20:18.498Z,14.60
2024-02-29T12:22:50.308Z,14.40
2024-02-29T12:25:23.062Z,14.02
2024-02-29T12:27:51.229Z,14.98
2024-02-29T12:30:21.748Z,14.30
2024-02-29T12:32:55.486Z,14.32
2024-02-29T12:35:28.676Z,14.40
2024-02-29T12:37:57.101Z,14.07
2024-02-29T12:40:27.304Z,15.23
2024-02-29T12:42:55.531Z,14.30
2024-02-29T12:45:24.013Z,15.13
2024-02-29T12:47:52.072Z,14.60
2024-02-29T12:50:22.520Z,14.90
2024-02-29T12:52:55.526Z,15.13
2024-02-29T12:55:24.311Z,14.75
2024-02-29T12:57:52.285Z,14.63
2024-02-29T13:00:26.057Z,15.35
2024-02-29T13:02:54.282Z,15.13
2024-02-29T13:05:22.674Z,15.30
2024-02-29T13:07:51.427Z,14.77
2024-02-29T13:10:21.184Z,15.75
2024-02-29T13:12:54.468Z,15.43
2024-02-29T13:15:25.844Z,14.77
2024-02-29T13:17:53.892Z,15.15
2024-02-29T13:20:22.168Z,14.85
2024-02-29T13:22:50.068Z,14.95
2024-02-29T13:25:18.545Z,15.35
2024-02-29T13:27:46.461Z,14.48
2024-02-29T13:30:16.050Z,14.55
2024-02-29T13:32:45.441Z,14.60
2024-02-29T13:35:13.831Z,15.02
2024-02-29T13:37:42.643Z,15.45
2024-02-29T13:40:12.017Z,14.45
2024-02-29T13:42:45.342Z,14.90
2024-02-29T13:45:14.357Z,14.52
2024-02-29T13:47:52.350Z,15.00
2024-02-29T13:50:26.707Z,14.82
2024-02-29T13:52:57.352Z,14.85
2024-02-29T13:55:34.406Z,15.15
2024-02-29T13:58:02.453Z,14.77
2024-02-29T14:00:32.450Z,14.35
2024-02-29T14:03:00.435Z,15.38
2024-02-29T14:05:28.728Z,15.27
2024-02-29T14:07:57.289Z,14.35
2024-02-29T14:10:25.689Z,14.80
2024-02-29T14:12:53.840Z,14.57
2024-02-29T14:15:23.477Z,14.93
2024-02-29T14:17:52.024Z,15.35
2024-02-29T14:20:21.434Z,15.27
2024-02-29T14:22:49.471Z,16.10
2024-02-29T14:25:36.416Z,16.67
2024-02-29T14:28:04.979Z,16.65
2024-02-29T14:30:40.945Z,16.98
2024-02-29T14:33:58.606Z,16.10
2024-02-29T14:39:42.895Z,15.85
2024-02-29T14:39:57.658Z,17.65
2024-02-29T14:42:26.187Z,16.58
2024-02-29T14:44:54.556Z,16.33
2024-02-29T14:47:23.493Z,16.80
2024-02-29T14:49:52.552Z,16.05
2024-02-29T14:52:20.676Z,15.82
2024-02-29T14:54:49.748Z,15.95
2024-02-29T14:57:17.758Z,16.25
2024-02-29T14:59:47.987Z,15.40
2024-02-29T15:02:16.523Z,15.82
2024-02-29T15:04:45.735Z,16.20
2024-02-29T15:07:14.302Z,15.95
2024-02-29T15:09:42.704Z,14.95
2024-02-29T15:12:10.654Z,16.55
2024-02-29T15:14:39.071Z,16.00
2024-02-29T15:17:06.981Z,17.05
2024-02-29T15:19:36.105Z,16.60
2024-02-29T15:22:04.419Z,16.15
2024-02-29T15:24:32.905Z,17.48
2024-02-29T15:27:01.018Z,16.90
2024-02-29T15:29:29.532Z,15.75
2024-02-29T15:31:57.367Z,16.90
2024-02-29T15:34:25.916Z,16.75
2024-02-29T15:36:55.127Z,16.33
2024-02-29T15:39:23.666Z,15.25
2024-02-29T15:41:51.700Z,15.32
2024-02-29T15:44:20.132Z,15.68
2024-02-29T15:46:48.079Z,15.35
2024-02-29T15:49:16.494Z,15.55
2024-02-29T15:51:44.462Z,15.75
2024-02-29T15:54:12.753Z,15.45
2024-02-29T15:56:40.754Z,15.00
2024-02-29T15:59:10.640Z,15.50
2024-02-29T16:01:38.835Z,14.88
2024-02-29T16:04:07.436Z,15.88
2024-02-29T16:06:35.386Z,15.38
2024-02-29T16:09:03.689Z,16.27
2024-02-29T16:11:31.670Z,15.40
2024-02-29T16:13:59.986Z,15.25
2024-02-29T16:16:29.425Z,15.80
2024-02-29T16:18:57.818Z,15.52
2024-02-29T16:21:28.132Z,15.75
2024-02-29T16:23:56.791Z,15.90
2024-02-29T16:26:24.902Z,16.40
2024-02-29T16:28:55.402Z,16.10
2024-02-29T16:31:23.416Z,17.17
2024-02-29T16:33:51.709Z,16.80
2024-02-29T16:36:20.353Z,17.27
2024-02-29T16:38:48.608Z,15.32
2024-02-29T16:41:16.512Z,15.02
2024-02-29T16:43:44.881Z,15.57
2024-02-29T16:46:13.176Z,15.15
2024-02-29T16:48:41.864Z,15.57
2024-02-29T16:51:09.907Z,17.55
2024-02-29T16:53:38.077Z,17.08
2024-02-29T16:56:06.117Z,14.18
2024-02-29T16:58:34.518Z,15.25
2024-02-29T17:01:05.585Z,14.30
2024-02-29T17:03:39.053Z,14.57
2024-02-29T17:06:10.472Z,14.80
2024-02-29T17:08:38.912Z,14.27
2024-02-29T17:11:07.822Z,14.52
2024-02-29T17:13:44.730Z,15.35
2024-02-29T17:16:14.414Z,15.25
2024-02-29T17:18:43.512Z,15.75
2024-02-29T17:21:12.145Z,17.13
2024-02-29T17:23:40.693Z,18.33
2024-02-29T17:26:21.776Z,16.17
2024-02-29T17:28:52.812Z,16.85
2024-02-29T17:31:24.106Z,15.05
2024-02-29T17:33:53.112Z,15.57
2024-02-29T17:36:21.018Z,15.63
2024-02-29T17:38:49.395Z,14.02
2024-02-29T17:41:17.720Z,14.57
2024-02-29T17:43:46.087Z,14.80
2024-02-29T17:46:14.082Z,14.32
2024-02-29T17:48:44.572Z,14.05
2024-02-29T17:51:12.513Z,14.32
2024-02-29T17:53:41.630Z,14.20
2024-02-29T17:56:09.610Z,14.23
2024-02-29T17:58:38.150Z,13.95
2024-02-29T18:03:52.514Z,14.27
2024-02-29T18:06:20.525Z,13.65
2024-02-29T18:08:49.860Z,14.18
2024-02-29T18:11:18.016Z,14.00
2024-02-29T18:13:46.280Z,13.52
2024-02-29T18:16:15.526Z,13.00
2024-02-29T18:18:44.571Z,13.18
2024-02-29T18:21:19.812Z,13.95
2024-02-29T18:23:48.402Z,14.57
2024-02-29T18:26:16.639Z,14.27
2024-02-29T18:28:45.032Z,15.52
2024-02-29T18:31:13.590Z,14.90
2024-02-29T18:33:42.674Z,14.25
2024-02-29T18:36:11.164Z,14.02
2024-02-29T18:38:39.493Z,13.90
2024-02-29T18:41:07.361Z,14.35
2024-02-29T18:43:38.158Z,14.07
2024-02-29T18:46:07.158Z,14.05
2024-02-29T18:48:41.025Z,14.60
2024-02-29T18:51:10.165Z,14.98
2024-02-29T18:54:04.408Z,14.48
2024-02-29T18:56:32.767Z,14.45
2024-02-29T18:59:01.118Z,15.00
2024-02-29T19:01:29.145Z,13.50
2024-02-29T19:03:58.587Z,13.70
2024-02-29T19:06:26.971Z,13.70
2024-02-29T19:08:55.147Z,14.68
2024-02-29T19:11:23.366Z,14.38
2024-02-29T19:13:52.088Z,13.85
2024-02-29T19:16:20.739Z,14.68
2024-02-29T19:18:49.191Z,13.68
2024-02-29T19:21:17.235Z,13.48
2024-02-29T19:23:45.724Z,13.93
2024-02-29T19:26:14.580Z,13.68
2024-02-29T19:28:48.939Z,14.27
